WCAT438 CYYJ-CYYJ
Flight info
| Callsign | WCAT438 |
|---|---|
| Flight time | N/A |
| Altitude | 1000 |
| Route | VFR |
| Aircraft | B412/L-DGV/A |
Departure
| Time | 2026-05-08 03:11 |
|---|---|
| Airport | Victoria International Airport (CYYJ) |
Arrival
| Time | N/A |
|---|---|
| Airport | Victoria International Airport (CYYJ) |
| Time | Latitude | Longitude | Altitude | Speed | Heading |
|---|---|---|---|---|---|
| 2026-05-08 02:59 | 48.64924 | -123.43696 | 55 ft | 0 kts | 85° |
| 2026-05-08 03:00 | 48.64923 | -123.43696 | 55 ft | 0 kts | 85° |
| 2026-05-08 03:00 | 48.64922 | -123.43696 | 55 ft | 0 kts | 85° |
| 2026-05-08 03:01 | 48.64921 | -123.43696 | 53 ft | 0 kts | 85° |
| 2026-05-08 03:02 | 48.64920 | -123.43696 | 53 ft | 0 kts | 85° |
| 2026-05-08 03:03 | 48.64920 | -123.43695 | 53 ft | 0 kts | 85° |
| 2026-05-08 03:03 | 48.64919 | -123.43695 | 53 ft | 0 kts | 85° |
| 2026-05-08 03:04 | 48.64918 | -123.43695 | 53 ft | 0 kts | 85° |
| 2026-05-08 03:05 | 48.64917 | -123.43695 | 54 ft | 0 kts | 85° |
| 2026-05-08 03:06 | 48.64916 | -123.43695 | 54 ft | 0 kts | 85° |
| 2026-05-08 03:06 | 48.64915 | -123.43695 | 49 ft | 0 kts | 85° |
| 2026-05-08 03:07 | 48.64914 | -123.43695 | 55 ft | 0 kts | 85° |
| 2026-05-08 03:08 | 48.64913 | -123.43695 | 55 ft | 0 kts | 85° |
| 2026-05-08 03:09 | 48.64912 | -123.43695 | 51 ft | 0 kts | 85° |
| 2026-05-08 03:10 | 48.64911 | -123.43695 | 52 ft | 0 kts | 85° |
| 2026-05-08 03:11 | 48.64911 | -123.43694 | 52 ft | 0 kts | 85° |
| 2026-05-08 03:11 | 48.64910 | -123.43695 | 52 ft | 0 kts | 75° |
| 2026-05-08 03:11 | 48.64982 | -123.43338 | 324 ft | 74 kts | 32° |
| 2026-05-08 03:11 | 48.65420 | -123.42777 | 733 ft | 107 kts | 50° |
| 2026-05-08 03:12 | 48.65833 | -123.41679 | 893 ft | 136 kts | 60° |
| 2026-05-08 03:12 | 48.65962 | -123.40781 | 1433 ft | 103 kts | 86° |
| 2026-05-08 03:12 | 48.66413 | -123.39653 | 1491 ft | 142 kts | 43° |
| 2026-05-08 03:12 | 48.67293 | -123.38673 | 1168 ft | 167 kts | 23° |
| 2026-05-08 03:13 | 48.68291 | -123.37955 | 1030 ft | 106 kts | 21° |
| 2026-05-08 03:13 | 48.69177 | -123.37292 | 616 ft | 160 kts | 23° |
| 2026-05-08 03:13 | 48.69945 | -123.36926 | 660 ft | 105 kts | 21° |
| 2026-05-08 03:13 | 48.70751 | -123.36359 | 704 ft | 140 kts | 23° |
| 2026-05-08 03:14 | 48.71665 | -123.35732 | 904 ft | 147 kts | 19° |
| 2026-05-08 03:14 | 48.72646 | -123.35242 | 1006 ft | 155 kts | 11° |
| 2026-05-08 03:14 | 48.73768 | -123.34914 | 654 ft | 171 kts | 4° |
| 2026-05-08 03:14 | 48.74564 | -123.34738 | 566 ft | 125 kts | 15° |
| 2026-05-08 03:15 | 48.75412 | -123.34263 | 720 ft | 142 kts | 17° |
| 2026-05-08 03:15 | 48.76373 | -123.33701 | 889 ft | 149 kts | 14° |
| 2026-05-08 03:15 | 48.77394 | -123.33162 | 867 ft | 162 kts | 11° |
| 2026-05-08 03:15 | 48.78191 | -123.32842 | 940 ft | 127 kts | 22° |
| 2026-05-08 03:16 | 48.78998 | -123.32025 | 626 ft | 144 kts | 22° |
| 2026-05-08 03:16 | 48.79619 | -123.31352 | 698 ft | 125 kts | 24° |
| 2026-05-08 03:16 | 48.80478 | -123.30999 | 1096 ft | 120 kts | 9° |
| 2026-05-08 03:16 | 48.81093 | -123.30555 | 1936 ft | 98 kts | 41° |
| 2026-05-08 03:17 | 48.81673 | -123.29711 | 2165 ft | 131 kts | 40° |
| 2026-05-08 03:17 | 48.82391 | -123.28687 | 2234 ft | 148 kts | 38° |
| 2026-05-08 03:17 | 48.83269 | -123.27739 | 2209 ft | 160 kts | 26° |
| 2026-05-08 03:17 | 48.84284 | -123.27062 | 1869 ft | 100 kts | 22° |
| 2026-05-08 03:18 | 48.85131 | -123.26526 | 1429 ft | 157 kts | 15° |
| 2026-05-08 03:18 | 48.86161 | -123.26111 | 1056 ft | 108 kts | 347° |
| 2026-05-08 03:18 | 48.87027 | -123.26051 | 1042 ft | 144 kts | 357° |
| 2026-05-08 03:18 | 48.88080 | -123.25980 | 1008 ft | 160 kts | 352° |
| 2026-05-08 03:19 | 48.89188 | -123.26061 | 1070 ft | 158 kts | 353° |
| 2026-05-08 03:19 | 48.90331 | -123.26286 | 881 ft | 171 kts | 341° |
| 2026-05-08 03:19 | 48.91283 | -123.26635 | 545 ft | 137 kts | 5° |
| 2026-05-08 03:19 | 48.92179 | -123.26033 | 495 ft | 151 kts | 23° |
| 2026-05-08 03:20 | 48.93228 | -123.25472 | 286 ft | 165 kts | 5° |
| 2026-05-08 03:20 | 48.94140 | -123.25230 | 132 ft | 115 kts | 9° |
| 2026-05-08 03:20 | 48.95033 | -123.24917 | 253 ft | 139 kts | 9° |
| 2026-05-08 03:20 | 48.95989 | -123.24574 | 561 ft | 139 kts | 10° |
| 2026-05-08 03:21 | 48.96824 | -123.24139 | 1258 ft | 114 kts | 20° |
| 2026-05-08 03:21 | 48.97558 | -123.23551 | 1733 ft | 121 kts | 26° |
| 2026-05-08 03:21 | 48.98327 | -123.22857 | 2036 ft | 137 kts | 28° |
| 2026-05-08 03:21 | 48.99251 | -123.22103 | 1791 ft | 166 kts | 20° |
| 2026-05-08 03:22 | 49.00255 | -123.21630 | 1335 ft | 129 kts | 13° |
| 2026-05-08 03:22 | 49.01261 | -123.21080 | 1039 ft | 162 kts | 13° |
| 2026-05-08 03:22 | 49.02298 | -123.20678 | 1378 ft | 147 kts | 8° |
| 2026-05-08 03:22 | 49.03276 | -123.20232 | 1607 ft | 147 kts | 15° |
| 2026-05-08 03:23 | 49.04272 | -123.19718 | 1709 ft | 152 kts | 14° |
| 2026-05-08 03:23 | 49.05286 | -123.19271 | 1906 ft | 150 kts | 9° |
| 2026-05-08 03:23 | 49.06371 | -123.19081 | 1888 ft | 160 kts | 359° |
| 2026-05-08 03:23 | 49.07447 | -123.19056 | 1887 ft | 163 kts | 349° |
| 2026-05-08 03:24 | 49.08618 | -123.19246 | 1569 ft | 167 kts | 347° |
| 2026-05-08 03:24 | 49.09634 | -123.19254 | 1384 ft | 98 kts | 0° |
| 2026-05-08 03:24 | 49.10413 | -123.18945 | 1557 ft | 131 kts | 13° |
| 2026-05-08 03:24 | 49.11343 | -123.18534 | 1687 ft | 148 kts | 6° |
| 2026-05-08 03:25 | 49.12358 | -123.18371 | 1927 ft | 145 kts | 355° |
| 2026-05-08 03:25 | 49.13362 | -123.18412 | 2183 ft | 144 kts | 351° |
| 2026-05-08 03:25 | 49.14367 | -123.18475 | 2381 ft | 149 kts | 356° |
| 2026-05-08 03:25 | 49.15447 | -123.18403 | 2404 ft | 154 kts | 353° |
| 2026-05-08 03:26 | 49.16481 | -123.18481 | 1701 ft | 148 kts | 348° |
| 2026-05-08 03:26 | 49.17526 | -123.18310 | 1064 ft | 159 kts | 1° |
| 2026-05-08 03:26 | 49.18570 | -123.18061 | 1340 ft | 144 kts | 4° |
| 2026-05-08 03:26 | 49.19589 | -123.17749 | 1469 ft | 150 kts | 5° |
| 2026-05-08 03:27 | 49.20678 | -123.17625 | 1332 ft | 161 kts | 355° |
| 2026-05-08 03:27 | 49.21744 | -123.17531 | 1575 ft | 154 kts | 355° |
| 2026-05-08 03:27 | 49.22873 | -123.17541 | 1402 ft | 165 kts | 353° |
| 2026-05-08 03:27 | 49.24027 | -123.17716 | 1195 ft | 157 kts | 347° |
| 2026-05-08 03:28 | 49.25064 | -123.17640 | 1346 ft | 147 kts | 11° |
| 2026-05-08 03:28 | 49.26009 | -123.17152 | 1669 ft | 141 kts | 13° |
| 2026-05-08 03:28 | 49.26980 | -123.16706 | 1861 ft | 148 kts | 11° |
| 2026-05-08 03:28 | 49.27964 | -123.16224 | 2131 ft | 143 kts | 12° |
| 2026-05-08 03:29 | 49.28904 | -123.15846 | 2466 ft | 142 kts | 5° |
| 2026-05-08 03:29 | 49.29891 | -123.15569 | 2529 ft | 154 kts | 1° |
| 2026-05-08 03:29 | 49.30969 | -123.15753 | 1150 ft | 168 kts | 338° |
| 2026-05-08 03:29 | 49.31989 | -123.16222 | 524 ft | 142 kts | 353° |
| 2026-05-08 03:30 | 49.33771 | -123.16300 | 1294 ft | 133 kts | 5° |
| 2026-05-08 03:30 | 49.33844 | -123.14217 | 471 ft | 123 kts | 102° |
| 2026-05-08 03:31 | 49.33570 | -123.12594 | 307 ft | 69 kts | 126° |
| 2026-05-08 03:31 | 49.33253 | -123.11108 | 361 ft | 66 kts | 86° |
| 2026-05-08 03:32 | 49.33240 | -123.10349 | 337 ft | 77 kts | 89° |
| 2026-05-08 03:32 | 49.33199 | -123.09580 | 445 ft | 59 kts | 93° |
| 2026-05-08 03:32 | 49.33194 | -123.08990 | 486 ft | 67 kts | 93° |
| 2026-05-08 03:32 | 49.33190 | -123.08197 | 444 ft | 73 kts | 87° |
| 2026-05-08 03:33 | 49.33170 | -123.07531 | 573 ft | 61 kts | 86° |
| 2026-05-08 03:33 | 49.33187 | -123.06822 | 544 ft | 70 kts | 80° |
| 2026-05-08 03:33 | 49.33193 | -123.06091 | 589 ft | 66 kts | 82° |
| 2026-05-08 03:33 | 49.33015 | -123.05514 | 573 ft | 65 kts | 136° |
| 2026-05-08 03:34 | 49.32681 | -123.05014 | 552 ft | 73 kts | 123° |
| 2026-05-08 03:34 | 49.32358 | -123.04457 | 534 ft | 71 kts | 144° |
| 2026-05-08 03:34 | 49.31900 | -123.04061 | 429 ft | 86 kts | 147° |
| 2026-05-08 03:34 | 49.31419 | -123.03440 | 239 ft | 96 kts | 118° |
| 2026-05-08 03:35 | 49.31015 | -123.02766 | 137 ft | 92 kts | 202° |
| 2026-05-08 03:35 | 49.30428 | -123.02688 | 117 ft | 86 kts | 156° |
| 2026-05-08 03:35 | 49.29890 | -123.02648 | 248 ft | 67 kts | 171° |
| 2026-05-08 03:35 | 49.29634 | -123.02642 | 329 ft | 60 kts | 174° |
| 2026-05-08 03:36 | 49.29473 | -123.02642 | 280 ft | 72 kts | 172° |
| 2026-05-08 03:36 | 49.29024 | -123.02776 | 217 ft | 77 kts | 245° |
| 2026-05-08 03:37 | 49.28620 | -123.03154 | 254 ft | 69 kts | 201° |
| 2026-05-08 03:37 | 49.28124 | -123.03155 | 256 ft | 70 kts | 194° |
| 2026-05-08 03:37 | 49.27695 | -123.03189 | 190 ft | 69 kts | 254° |
| 2026-05-08 03:37 | 49.27971 | -123.03380 | 286 ft | 41 kts | 353° |
| 2026-05-08 03:38 | 49.28145 | -123.03501 | 334 ft | 46 kts | 323° |
| 2026-05-08 03:38 | 49.28415 | -123.03668 | 326 ft | 48 kts | 279° |
| 2026-05-08 03:38 | 49.28257 | -123.03969 | 388 ft | 48 kts | 149° |
| 2026-05-08 03:39 | 49.28110 | -123.03476 | 397 ft | 40 kts | 82° |
| 2026-05-08 03:39 | 49.28239 | -123.03530 | 288 ft | 35 kts | 217° |
| 2026-05-08 03:39 | 49.28097 | -123.03265 | 211 ft | 55 kts | 75° |
| 2026-05-08 03:39 | 49.27969 | -123.03143 | 200 ft | 23 kts | 287° |
| 2026-05-08 03:40 | 49.27821 | -123.03147 | 190 ft | 47 kts | 162° |
| 2026-05-08 03:40 | 49.27537 | -123.03124 | 210 ft | 45 kts | 150° |
| 2026-05-08 03:40 | 49.27259 | -123.02966 | 228 ft | 47 kts | 151° |
| 2026-05-08 03:40 | 49.26909 | -123.02770 | 184 ft | 56 kts | 154° |
| 2026-05-08 03:41 | 49.26539 | -123.02615 | 209 ft | 49 kts | 177° |
| 2026-05-08 03:41 | 49.26263 | -123.03224 | 622 ft | 86 kts | 235° |
| 2026-05-08 03:41 | 49.26147 | -123.02521 | 545 ft | 124 kts | 111° |
| 2026-05-08 03:41 | 49.25778 | -123.01427 | 319 ft | 107 kts | 74° |
| 2026-05-08 03:42 | 49.25718 | -123.00415 | 250 ft | 94 kts | 127° |
| 2026-05-08 03:42 | 49.25206 | -123.00486 | 422 ft | 57 kts | 190° |
| 2026-05-08 03:42 | 49.24920 | -123.00747 | 585 ft | 41 kts | 217° |
| 2026-05-08 03:42 | 49.24914 | -123.01070 | 638 ft | 43 kts | 280° |
| 2026-05-08 03:43 | 49.24778 | -123.01494 | 688 ft | 43 kts | 217° |
| 2026-05-08 03:43 | 49.24604 | -123.01799 | 780 ft | 45 kts | 234° |
| 2026-05-08 03:43 | 49.24514 | -123.02368 | 740 ft | 67 kts | 255° |
| 2026-05-08 03:43 | 49.24414 | -123.03092 | 794 ft | 62 kts | 246° |
| 2026-05-08 03:44 | 49.24356 | -123.03639 | 942 ft | 53 kts | 257° |
| 2026-05-08 03:44 | 49.24354 | -123.04258 | 987 ft | 57 kts | 257° |
| 2026-05-08 03:44 | 49.24357 | -123.04893 | 973 ft | 68 kts | 257° |
| 2026-05-08 03:44 | 49.24354 | -123.05659 | 932 ft | 76 kts | 255° |
| 2026-05-08 03:45 | 49.24356 | -123.06737 | 1092 ft | 119 kts | 256° |
| 2026-05-08 03:45 | 49.24162 | -123.07966 | 1443 ft | 123 kts | 250° |
| 2026-05-08 03:45 | 49.23899 | -123.09341 | 1400 ft | 144 kts | 242° |
| 2026-05-08 03:45 | 49.23418 | -123.10763 | 1290 ft | 155 kts | 227° |
| 2026-05-08 03:46 | 49.22799 | -123.12031 | 1345 ft | 142 kts | 223° |
| 2026-05-08 03:46 | 49.22144 | -123.13118 | 1493 ft | 135 kts | 219° |
| 2026-05-08 03:46 | 49.21500 | -123.14118 | 1687 ft | 127 kts | 212° |
| 2026-05-08 03:46 | 49.20914 | -123.15137 | 1137 ft | 123 kts | 226° |
| 2026-05-08 03:47 | 49.20543 | -123.16222 | 1085 ft | 126 kts | 242° |
| 2026-05-08 03:47 | 49.20144 | -123.17620 | 900 ft | 147 kts | 234° |
| 2026-05-08 03:47 | 49.19500 | -123.18657 | 1354 ft | 126 kts | 210° |
| 2026-05-08 03:47 | 49.18782 | -123.19393 | 1690 ft | 126 kts | 205° |
| 2026-05-08 03:48 | 49.18197 | -123.20396 | 1738 ft | 131 kts | 218° |
| 2026-05-08 03:48 | 49.17518 | -123.21193 | 1176 ft | 127 kts | 201° |
| 2026-05-08 03:48 | 49.16814 | -123.21700 | 752 ft | 101 kts | 195° |
| 2026-05-08 03:48 | 49.16427 | -123.22173 | 895 ft | 116 kts | 221° |
| 2026-05-08 03:49 | 49.15888 | -123.23257 | 964 ft | 139 kts | 225° |
| 2026-05-08 03:49 | 49.15319 | -123.24491 | 1121 ft | 139 kts | 224° |
| 2026-05-08 03:49 | 49.14464 | -123.25969 | 1375 ft | 144 kts | 216° |
| 2026-05-08 03:49 | 49.13669 | -123.26907 | 1570 ft | 137 kts | 202° |
| 2026-05-08 03:50 | 49.12894 | -123.27578 | 2014 ft | 129 kts | 199° |
| 2026-05-08 03:50 | 49.12092 | -123.28251 | 2106 ft | 128 kts | 206° |
| 2026-05-08 03:50 | 49.11546 | -123.28660 | 2257 ft | 130 kts | 196° |
| 2026-05-08 03:50 | 49.10609 | -123.29074 | 2119 ft | 152 kts | 182° |
| 2026-05-08 03:51 | 49.09640 | -123.29047 | 1361 ft | 114 kts | 150° |
| 2026-05-08 03:51 | 49.08783 | -123.28648 | 1156 ft | 147 kts | 162° |
| 2026-05-08 03:51 | 49.07724 | -123.28622 | 971 ft | 152 kts | 175° |
| 2026-05-08 03:51 | 49.07093 | -123.28732 | 1169 ft | 96 kts | 198° |
| 2026-05-08 03:52 | 49.06419 | -123.29388 | 1187 ft | 134 kts | 205° |
| 2026-05-08 03:52 | 49.05600 | -123.30153 | 1271 ft | 140 kts | 201° |
| 2026-05-08 03:52 | 49.04760 | -123.30852 | 1506 ft | 135 kts | 201° |
| 2026-05-08 03:52 | 49.03856 | -123.31411 | 1476 ft | 148 kts | 185° |
| 2026-05-08 03:53 | 49.02849 | -123.31484 | 1151 ft | 156 kts | 170° |
| 2026-05-08 03:53 | 49.02534 | -123.31515 | 887 ft | 111 kts | 183° |
| 2026-05-08 03:53 | 49.01649 | -123.31920 | 567 ft | 149 kts | 187° |
| 2026-05-08 03:53 | 49.00647 | -123.32202 | 554 ft | 150 kts | 176° |
| 2026-05-08 03:54 | 48.99651 | -123.32314 | 783 ft | 133 kts | 178° |
| 2026-05-08 03:54 | 48.98782 | -123.32482 | 1315 ft | 118 kts | 179° |
| 2026-05-08 03:54 | 48.98039 | -123.32603 | 1918 ft | 112 kts | 185° |
| 2026-05-08 03:54 | 48.97176 | -123.32945 | 1835 ft | 141 kts | 188° |
| 2026-05-08 03:55 | 48.96201 | -123.33155 | 1954 ft | 138 kts | 177° |
| 2026-05-08 03:55 | 48.95237 | -123.33062 | 1967 ft | 146 kts | 163° |
| 2026-05-08 03:55 | 48.94237 | -123.32562 | 1762 ft | 152 kts | 154° |
| 2026-05-08 03:55 | 48.93268 | -123.31976 | 1700 ft | 154 kts | 150° |
| 2026-05-08 03:56 | 48.92502 | -123.31531 | 1654 ft | 104 kts | 169° |
| 2026-05-08 03:56 | 48.91669 | -123.31472 | 1752 ft | 128 kts | 170° |
| 2026-05-08 03:56 | 48.90743 | -123.31326 | 1893 ft | 136 kts | 165° |
| 2026-05-08 03:56 | 48.89828 | -123.30897 | 1959 ft | 138 kts | 150° |
| 2026-05-08 03:57 | 48.88964 | -123.30481 | 2265 ft | 129 kts | 162° |
| 2026-05-08 03:57 | 48.87980 | -123.30199 | 1978 ft | 154 kts | 167° |
| 2026-05-08 03:57 | 48.86984 | -123.30356 | 1718 ft | 82 kts | 195° |
| 2026-05-08 03:57 | 48.86292 | -123.30646 | 1783 ft | 124 kts | 187° |
| 2026-05-08 03:58 | 48.85388 | -123.30628 | 1871 ft | 131 kts | 165° |
| 2026-05-08 03:58 | 48.84435 | -123.30213 | 1846 ft | 138 kts | 150° |
| 2026-05-08 03:58 | 48.83508 | -123.29670 | 1539 ft | 125 kts | 195° |
| 2026-05-08 03:58 | 48.82769 | -123.30241 | 1196 ft | 140 kts | 200° |
| 2026-05-08 03:59 | 48.81900 | -123.30901 | 1322 ft | 139 kts | 194° |
| 2026-05-08 03:59 | 48.81030 | -123.31307 | 1618 ft | 132 kts | 188° |
| 2026-05-08 03:59 | 48.80105 | -123.31671 | 1661 ft | 142 kts | 189° |
| 2026-05-08 03:59 | 48.79090 | -123.32014 | 1324 ft | 153 kts | 186° |
| 2026-05-08 04:00 | 48.78067 | -123.32440 | 1058 ft | 157 kts | 194° |
| 2026-05-08 04:00 | 48.77298 | -123.32872 | 930 ft | 127 kts | 197° |
| 2026-05-08 04:00 | 48.76439 | -123.33483 | 873 ft | 144 kts | 193° |
| 2026-05-08 04:00 | 48.75480 | -123.33972 | 833 ft | 149 kts | 195° |
| 2026-05-08 04:01 | 48.74531 | -123.34592 | 886 ft | 143 kts | 194° |
| 2026-05-08 04:01 | 48.73626 | -123.35123 | 1035 ft | 145 kts | 194° |